Moosomin, Canada
Current Conditions -  °F | °C
As of 4:00 PM on Monday 26 Jan 2015 (Local Time) from CYBR Reporting Station
Broken Clouds Broken Clouds  
Wind Chill: -3°   Ceiling: 11000
Heat Index:   Visibility: 15mi
Dew Point: -1°   Wind: 10mph
Humidity: 87%   Direction: 270°W
Pressure: 29.91"   Gusts: NA
Location:  50.15°N, 101.67°W
Report Text: CYBR 262200Z 27009KT 15SM BKN110 01/M01 A2991 RMK AC7 SLP149
Loading
Personal Weather Stations






























Interactive Weather Map New forecast layout! Learn more

10-Day Weather Forecast

Advertisements
Track Severe Weather on mobile